Adrian, GA

9:21 AM EST on December 20, 2014 (GMT -0500)
South Treutlen Co. | Change Station
CLOSE
Current Station
Personal Weather Station
Location: Soperton, GA
Elevation: 236 ft
Nearby Weather Stations

Elev 236 ft 32.32 °N, 82.60 °W | Updated 5 seconds ago

Rain
Rain
49.1 °F
Feels Like 49 °F
N
0.0
Wind Variable Wind from North
Gusts 0.0 mph

Today
High -- | Low -- °F
--% Chance of Precip.
Yesterday
High -- | Low -- °F
Precip. -- in
7:27 AM 5:28 PM
Waning Crescent, 3% visible
Pressure 30.21 in
Visibility 7.0 miles
Clouds Overcast 3500 ft
Windchill 49 °F
Dew Point 49 °F
Humidity 100%
Rainfall 0.02 in
Snow Depth Not available.
UV 0 out of 12
Pollen .40 out of 12
Air Quality Not available.
Flu Activity Not available.
METAR KVDI 201415Z AUTO 00000KT 7SM OVC035 10/10 A3021 RMK AO2

More Conditions Fewer Conditions

Pressure 30.21 in
Visibility 7.0 miles
Clouds Overcast 3500 ft
Windchill 49 °F
Dew Point 49 °F
Humidity 100%
Rainfall 0.02 in
Snow Depth Not available.
UV 0 out of 12
Pollen .40 out of 12
Air Quality Not available.
Flu Activity Not available.
METAR KVDI 201415Z AUTO 00000KT 7SM OVC035 10/10 A3021 RMK AO2

More Conditions Fewer Conditions

10-Day Weather Forecast

Almanac

Astronomy

Dec. 20, 2014 Rise Set
Actual Time
Civil Twilight
Nautical Twilight
Astronomical Twilight
Moon
Length of Visible Light
Length of Day
Tomorrow will be .
, % of the Moon is Illuminated

Today's Extremes

State Highs State Lows

Community

WunderPhotos

Upload Photos

1,779,174 photos uploaded!

WunderBlogs® & News

Nearby

Air Quality

  Air Quality AQ Index Pollutant
Not available.

Snow Depth

Station Depth Elevation

Earthquake Activity

City Distance Mag. Time & Date
Minimum magnitude displayed is 2.5.

Coastal Water Temperatures

Place Temperature

Nearby Weather Stations